Time;durP1;ratioP1;P1;durP2;ratioP2;P2;SDS_P1;SDS_P2;PMS_P1;PMS_P2;Temp;Humidity;BMP_temperature;BMP_pressure;BME280_temperature;BME280_humidity;BME280_pressure;Samples;Min_cycle;Max_cycle;Signal;HPM_P1;HPM_P2
2023/10/24 00:00:15;;;;;;;4.75;4.10;;;12.70;99.90;;;;;;5049826;28;20448;-69
2023/10/24 00:02:42;;;;;;;5.00;3.90;;;12.70;99.90;;;;;;5052732;28;20437;-70
2023/10/24 00:05:10;;;;;;;4.68;3.80;;;12.70;99.90;;;;;;5053466;28;20429;-67
2023/10/24 00:07:37;;;;;;;5.37;3.87;;;12.60;99.90;;;;;;5054094;28;20424;-69
2023/10/24 00:10:04;;;;;;;5.37;4.10;;;12.60;99.90;;;;;;5051985;28;20423;-69
2023/10/24 00:12:31;;;;;;;4.88;4.18;;;12.60;99.90;;;;;;5065072;28;20433;-69
2023/10/24 00:14:59;;;;;;;4.07;3.70;;;12.60;99.90;;;;;;5054413;28;20571;-69
2023/10/24 00:17:26;;;;;;;4.50;4.10;;;12.70;99.90;;;;;;5050312;28;20440;-69
2023/10/24 00:19:53;;;;;;;4.70;4.00;;;12.60;99.90;;;;;;5058452;28;20442;-71
2023/10/24 00:22:20;;;;;;;4.20;3.90;;;12.60;99.90;;;;;;5051821;28;20520;-68
2023/10/24 00:24:46;;;;;;;4.85;4.20;;;12.60;99.90;;;;;;5054717;28;20436;-70
2023/10/24 00:27:13;;;;;;;4.50;3.80;;;12.50;99.90;;;;;;5054192;28;20806;-68
2023/10/24 00:29:40;;;;;;;4.90;4.30;;;12.50;99.90;;;;;;5053531;28;20794;-69
2023/10/24 00:32:08;;;;;;;4.80;4.30;;;12.40;99.90;;;;;;5051813;28;20431;-70
2023/10/24 00:34:34;;;;;;;5.68;4.80;;;12.40;99.90;;;;;;5056905;28;20424;-69
2023/10/24 00:37:01;;;;;;;6.15;4.63;;;12.40;99.90;;;;;;5049666;28;20433;-67
2023/10/24 00:39:28;;;;;;;5.90;4.47;;;12.40;99.90;;;;;;5051838;28;20843;-70
2023/10/24 00:41:55;;;;;;;8.10;4.90;;;12.30;99.90;;;;;;5054487;28;20436;-70
2023/10/24 00:44:21;;;;;;;6.00;4.60;;;12.30;99.90;;;;;;5053708;28;20931;-68
2023/10/24 00:46:48;;;;;;;5.50;4.90;;;12.30;99.90;;;;;;5053474;28;20433;-69
2023/10/24 00:49:17;;;;;;;5.40;5.00;;;12.20;99.90;;;;;;5055312;28;20427;-70
2023/10/24 00:51:44;;;;;;;4.88;4.43;;;12.20;99.90;;;;;;5050876;28;20781;-68
2023/10/24 00:54:12;;;;;;;5.10;4.60;;;12.10;99.90;;;;;;5055581;28;20725;-70
2023/10/24 00:56:40;;;;;;;5.25;4.75;;;12.20;99.90;;;;;;5051446;28;20433;-69
2023/10/24 00:59:07;;;;;;;5.40;4.90;;;12.20;99.90;;;;;;5052775;28;20435;-67
2023/10/24 01:01:34;;;;;;;5.85;4.95;;;12.10;99.90;;;;;;5051536;28;20428;-68
2023/10/24 01:04:03;;;;;;;5.43;4.70;;;12.20;99.90;;;;;;5053394;28;20844;-69
2023/10/24 01:06:31;;;;;;;6.60;4.40;;;12.20;99.90;;;;;;5055906;28;20437;-69
2023/10/24 01:08:58;;;;;;;5.22;4.28;;;12.20;99.90;;;;;;5053987;28;20438;-70
2023/10/24 01:11:25;;;;;;;5.95;4.50;;;12.20;99.90;;;;;;5052784;28;20487;-70
2023/10/24 01:13:52;;;;;;;5.50;3.95;;;12.20;99.90;;;;;;5046201;28;20427;-70
2023/10/24 01:16:18;;;;;;;6.10;3.85;;;12.20;99.90;;;;;;5050934;28;20433;-68
2023/10/24 01:18:45;;;;;;;5.22;3.63;;;12.20;99.90;;;;;;5050961;28;20431;-68
2023/10/24 01:21:12;;;;;;;5.38;4.53;;;12.30;99.90;;;;;;5053098;28;20433;-69
2023/10/24 01:23:40;;;;;;;5.13;3.60;;;12.30;99.90;;;;;;5053021;28;20942;-68
2023/10/24 01:26:09;;;;;;;4.80;3.60;;;12.30;99.90;;;;;;5057250;28;20427;-70
2023/10/24 01:28:35;;;;;;;5.40;4.00;;;12.20;99.90;;;;;;5048684;28;20518;-69
2023/10/24 01:31:02;;;;;;;5.10;3.90;;;12.20;99.90;;;;;;5051547;28;20447;-69
2023/10/24 01:33:29;;;;;;;4.68;3.80;;;12.20;99.90;;;;;;5051119;28;21066;-69
2023/10/24 01:35:56;;;;;;;4.40;4.00;;;12.20;99.90;;;;;;5054584;28;20906;-69
2023/10/24 01:38:22;;;;;;;5.97;4.10;;;12.20;99.90;;;;;;5056428;28;20812;-69
2023/10/24 01:40:49;;;;;;;4.90;4.05;;;12.20;99.90;;;;;;5057549;28;20443;-69
2023/10/24 01:43:16;;;;;;;5.53;4.20;;;12.20;99.90;;;;;;5056907;28;20457;-69
2023/10/24 01:45:43;;;;;;;7.10;4.17;;;12.20;99.90;;;;;;5051224;28;20442;-69
2023/10/24 01:48:10;;;;;;;5.03;3.80;;;12.20;99.90;;;;;;5057737;28;21025;-70
2023/10/24 01:50:36;;;;;;;4.03;3.40;;;12.30;99.90;;;;;;5060181;28;20435;-69
2023/10/24 01:53:03;;;;;;;4.13;3.72;;;12.20;99.90;;;;;;5055202;28;20429;-70
2023/10/24 01:55:30;;;;;;;4.60;3.53;;;12.20;99.90;;;;;;5056879;28;21048;-69
2023/10/24 01:57:58;;;;;;;3.80;3.40;;;12.20;99.90;;;;;;5052103;28;20436;-68
2023/10/24 02:00:25;;;;;;;4.18;3.20;;;12.30;99.90;;;;;;5052270;28;20441;-69
2023/10/24 02:02:53;;;;;;;3.60;3.27;;;12.30;99.90;;;;;;5059468;28;20443;-69
2023/10/24 02:05:20;;;;;;;3.40;2.97;;;12.40;99.90;;;;;;5064356;28;20508;-69
2023/10/24 02:07:47;;;;;;;3.40;2.60;;;12.40;99.90;;;;;;5063028;28;20444;-69
2023/10/24 02:10:14;;;;;;;3.50;3.20;;;12.50;99.90;;;;;;5060608;28;20562;-68
2023/10/24 02:12:41;;;;;;;3.00;2.70;;;12.60;99.90;;;;;;5065896;28;20999;-69
2023/10/24 02:15:11;;;;;;;3.42;2.38;;;12.60;99.90;;;;;;5066029;28;20433;-68
2023/10/24 02:17:37;;;;;;;2.70;2.30;;;12.70;99.90;;;;;;5057267;28;20435;-69
2023/10/24 02:20:05;;;;;;;3.33;2.20;;;12.70;99.90;;;;;;5054555;28;20437;-68
2023/10/24 02:22:32;;;;;;;2.70;2.17;;;12.80;99.90;;;;;;5058522;28;20510;-69
2023/10/24 02:24:59;;;;;;;3.60;2.10;;;12.80;99.90;;;;;;5059185;28;20468;-68
2023/10/24 02:27:26;;;;;;;3.60;1.92;;;12.90;99.90;;;;;;5058799;28;20435;-69
2023/10/24 02:29:53;;;;;;;2.60;2.40;;;12.80;99.90;;;;;;5055272;28;20437;-67
2023/10/24 02:32:21;;;;;;;3.40;2.10;;;12.80;99.90;;;;;;5053594;28;20439;-68
2023/10/24 02:34:49;;;;;;;2.35;2.15;;;12.90;99.90;;;;;;5055838;28;20804;-70
2023/10/24 02:37:16;;;;;;;2.17;1.90;;;12.90;99.90;;;;;;5055705;28;20419;-71
2023/10/24 02:39:43;;;;;;;3.73;2.10;;;12.90;99.90;;;;;;5052869;28;20527;-69
2023/10/24 02:42:09;;;;;;;2.07;1.87;;;13.00;99.90;;;;;;5058817;28;20446;-68
2023/10/24 02:44:36;;;;;;;1.60;1.50;;;13.00;99.90;;;;;;5054637;28;20967;-68
2023/10/24 02:47:03;;;;;;;2.30;2.00;;;13.00;99.90;;;;;;5050937;28;20425;-69
2023/10/24 02:49:33;;;;;;;3.20;2.15;;;13.00;99.90;;;;;;5058313;28;20917;-69
2023/10/24 02:52:00;;;;;;;3.10;2.00;;;13.00;99.90;;;;;;5057788;28;20441;-69
2023/10/24 02:54:26;;;;;;;3.00;1.60;;;13.00;99.90;;;;;;5057241;28;20910;-69
2023/10/24 02:56:53;;;;;;;2.95;2.10;;;13.00;99.90;;;;;;5061384;28;20935;-69
2023/10/24 02:59:20;;;;;;;3.60;1.77;;;13.00;99.90;;;;;;5056127;28;20427;-68
2023/10/24 03:01:47;;;;;;;2.70;1.90;;;12.90;99.90;;;;;;5057574;28;20842;-69
2023/10/24 03:04:13;;;;;;;2.67;1.70;;;12.90;99.90;;;;;;5067360;28;20433;-68
2023/10/24 03:06:42;;;;;;;2.70;2.20;;;13.00;99.90;;;;;;5068230;28;20426;-68
2023/10/24 03:09:09;;;;;;;2.45;1.58;;;12.90;99.90;;;;;;5068137;28;20779;-69
2023/10/24 03:11:35;;;;;;;3.28;1.77;;;12.90;99.90;;;;;;5060126;28;20417;-67
2023/10/24 03:14:02;;;;;;;2.00;1.60;;;13.00;99.90;;;;;;5061269;28;20409;-70
2023/10/24 03:16:29;;;;;;;1.90;1.67;;;12.90;99.90;;;;;;5061042;28;20424;-69
2023/10/24 03:18:56;;;;;;;2.40;1.30;;;12.90;99.90;;;;;;5067788;28;20416;-68
2023/10/24 03:21:23;;;;;;;2.22;1.55;;;12.90;99.90;;;;;;5069673;28;20406;-69
2023/10/24 03:23:51;;;;;;;2.72;1.80;;;12.90;99.90;;;;;;5058079;28;20444;-69
2023/10/24 03:26:19;;;;;;;2.08;1.85;;;12.90;99.90;;;;;;5061704;28;20425;-71
2023/10/24 03:28:46;;;;;;;1.50;1.40;;;12.90;99.90;;;;;;5063109;28;20579;-67
2023/10/24 03:31:12;;;;;;;1.90;1.50;;;13.00;99.90;;;;;;5064906;28;20427;-69
2023/10/24 03:33:39;;;;;;;4.00;1.30;;;13.00;99.90;;;;;;5064170;28;20440;-69
2023/10/24 03:36:12;;;;;;;2.08;1.40;;;13.00;99.90;;;;;;5063286;28;20898;-67
2023/10/24 03:38:39;;;;;;;1.60;1.48;;;13.00;99.90;;;;;;5061777;28;20477;-70
2023/10/24 03:41:07;;;;;;;2.70;1.50;;;13.00;99.90;;;;;;5077344;28;20408;-70
2023/10/24 03:43:34;;;;;;;1.98;1.40;;;13.00;99.90;;;;;;5064965;28;20473;-68
2023/10/24 03:46:05;;;;;;;2.00;1.35;;;13.00;99.90;;;;;;5056456;28;20420;-70
2023/10/24 03:48:32;;;;;;;2.22;1.40;;;12.90;99.90;;;;;;5065232;28;20414;-67
2023/10/24 03:51:00;;;;;;;1.92;1.40;;;13.00;99.90;;;;;;5064749;28;20424;-69
2023/10/24 03:53:26;;;;;;;1.87;1.40;;;12.90;99.90;;;;;;5075900;28;20965;-69
2023/10/24 03:55:58;;;;;;;2.23;1.70;;;13.00;99.90;;;;;;5054381;28;20406;-69
2023/10/24 03:58:26;;;;;;;1.73;1.55;;;13.00;99.90;;;;;;5067340;28;20456;-68
2023/10/24 04:00:54;;;;;;;2.58;1.40;;;12.90;99.90;;;;;;5060712;28;20513;-69
2023/10/24 04:03:21;;;;;;;1.90;1.50;;;13.00;99.90;;;;;;5065063;28;20430;-69
2023/10/24 04:05:48;;;;;;;2.88;1.50;;;12.90;99.90;;;;;;5070014;28;20435;-69
2023/10/24 04:08:15;;;;;;;2.72;1.50;;;12.90;99.90;;;;;;5067005;28;20515;-69
2023/10/24 04:10:42;;;;;;;1.90;1.60;;;12.90;99.90;;;;;;5062343;28;20417;-69
2023/10/24 04:13:08;;;;;;;3.10;1.58;;;12.90;99.90;;;;;;5075385;28;20491;-69
2023/10/24 04:15:37;;;;;;;2.50;1.40;;;12.90;99.90;;;;;;5077299;28;20433;-68
2023/10/24 04:18:04;;;;;;;1.90;1.45;;;12.90;99.90;;;;;;5072042;28;20437;-69
2023/10/24 04:20:49;;;;;;;2.00;1.20;;;12.90;99.90;;;;;;5029916;28;20410;-70
2023/10/24 04:23:16;;;;;;;2.88;1.40;;;12.80;99.90;;;;;;5064671;28;20988;-71
2023/10/24 04:25:43;;;;;;;1.58;1.40;;;12.90;99.90;;;;;;5062061;28;20429;-70
2023/10/24 04:28:11;;;;;;;1.95;1.20;;;12.80;99.90;;;;;;5057394;28;20421;-67
2023/10/24 04:30:41;;;;;;;2.35;1.30;;;12.90;99.90;;;;;;5052570;28;20418;-69
2023/10/24 04:33:07;;;;;;;2.10;1.70;;;12.80;99.90;;;;;;5065202;28;20413;-70
2023/10/24 04:35:41;;;;;;;1.60;1.30;;;12.90;99.90;;;;;;5070194;28;20908;-70
2023/10/24 04:38:07;;;;;;;2.70;1.30;;;12.80;99.90;;;;;;5057309;28;20417;-70
2023/10/24 04:40:38;;;;;;;4.03;1.00;;;12.90;99.90;;;;;;5071946;28;20885;-68
2023/10/24 04:43:05;;;;;;;1.88;1.20;;;12.80;99.90;;;;;;5065064;28;20438;-68
2023/10/24 04:45:32;;;;;;;2.80;1.30;;;12.80;99.90;;;;;;5059462;28;20444;-70
2023/10/24 04:48:00;;;;;;;2.00;1.38;;;12.90;99.90;;;;;;5066916;28;20412;-70
2023/10/24 04:50:27;;;;;;;1.40;0.90;;;12.90;99.90;;;;;;5059581;28;20512;-69
2023/10/24 04:52:54;;;;;;;1.70;1.00;;;12.90;99.90;;;;;;5066609;28;20771;-70
2023/10/24 04:55:21;;;;;;;1.75;1.00;;;12.90;99.90;;;;;;5058934;28;20666;-68
2023/10/24 04:57:48;;;;;;;2.10;0.90;;;12.90;99.90;;;;;;5060215;28;20431;-69
2023/10/24 05:00:16;;;;;;;1.20;0.90;;;12.90;99.90;;;;;;5053728;28;20437;-69
2023/10/24 05:02:43;;;;;;;1.23;0.80;;;12.90;99.90;;;;;;5060111;28;20787;-71
2023/10/24 05:05:12;;;;;;;1.50;0.70;;;12.90;99.90;;;;;;5069598;28;20423;-68
2023/10/24 05:07:39;;;;;;;1.02;0.80;;;12.90;99.90;;;;;;5055265;28;20450;-69
2023/10/24 05:10:06;;;;;;;1.10;0.82;;;12.90;99.90;;;;;;5058632;28;20412;-68
2023/10/24 05:12:33;;;;;;;1.48;0.80;;;12.90;99.90;;;;;;5055028;28;20431;-67
2023/10/24 05:15:00;;;;;;;1.60;0.80;;;12.90;99.90;;;;;;5049812;28;20436;-69
2023/10/24 05:17:26;;;;;;;1.63;0.90;;;12.80;99.90;;;;;;5057945;28;20882;-70
2023/10/24 05:19:53;;;;;;;1.10;0.80;;;12.90;99.90;;;;;;5064634;28;20448;-68
2023/10/24 05:22:21;;;;;;;1.10;0.80;;;12.80;99.90;;;;;;5064588;28;20896;-71
2023/10/24 05:24:48;;;;;;;1.70;0.90;;;12.80;99.90;;;;;;5065399;28;20431;-70
2023/10/24 05:27:15;;;;;;;1.60;0.88;;;12.90;99.90;;;;;;5057502;28;20424;-71
2023/10/24 05:29:42;;;;;;;1.70;0.93;;;12.90;99.90;;;;;;5060918;28;20923;-68
2023/10/24 05:32:09;;;;;;;1.40;0.77;;;12.80;99.90;;;;;;5060806;28;20475;-68
2023/10/24 05:34:36;;;;;;;1.38;0.82;;;12.80;99.90;;;;;;5056667;28;20411;-67
2023/10/24 05:37:03;;;;;;;1.55;0.98;;;12.90;99.90;;;;;;5091005;22;20441;-68
2023/10/24 05:39:31;;;;;;;1.40;0.90;;;12.90;99.90;;;;;;5078680;28;20919;-68
2023/10/24 05:41:58;;;;;;;1.27;0.90;;;12.90;99.90;;;;;;5076761;28;20811;-68
2023/10/24 05:44:25;;;;;;;2.00;1.00;;;12.80;99.90;;;;;;5080065;28;20433;-68
2023/10/24 05:46:54;;;;;;;1.30;1.00;;;12.80;99.90;;;;;;5076595;28;20609;-68
2023/10/24 05:49:21;;;;;;;2.20;1.50;;;12.80;99.90;;;;;;5080350;28;20498;-68
2023/10/24 05:51:47;;;;;;;1.27;0.88;;;12.70;99.90;;;;;;5073335;28;20522;-68
2023/10/24 05:54:14;;;;;;;1.30;0.90;;;12.70;99.90;;;;;;5084646;28;20449;-68
2023/10/24 05:56:42;;;;;;;3.10;1.20;;;12.70;99.90;;;;;;5081706;28;20421;-68
2023/10/24 05:59:09;;;;;;;1.90;1.10;;;12.60;99.90;;;;;;5075859;28;20877;-68
2023/10/24 06:01:35;;;;;;;2.00;1.10;;;12.60;99.90;;;;;;5081401;28;20433;-67
2023/10/24 06:04:02;;;;;;;1.40;1.05;;;12.50;99.90;;;;;;5072509;28;20407;-68
2023/10/24 06:06:29;;;;;;;1.30;1.10;;;12.50;99.90;;;;;;5082290;28;20442;-68
2023/10/24 06:08:55;;;;;;;1.80;0.90;;;12.50;99.90;;;;;;5088024;28;20433;-68
2023/10/24 06:11:22;;;;;;;1.77;0.93;;;12.40;99.90;;;;;;5086154;28;20423;-69
2023/10/24 06:13:51;;;;;;;2.50;1.10;;;12.40;99.90;;;;;;5081679;28;20448;-68
2023/10/24 06:16:18;;;;;;;1.90;1.20;;;12.40;99.90;;;;;;5084029;28;20586;-68
2023/10/24 06:18:45;;;;;;;1.70;1.20;;;12.50;99.90;;;;;;5079605;28;20664;-68
2023/10/24 06:21:12;;;;;;;1.40;1.00;;;12.50;99.90;;;;;;5080533;28;20429;-68
2023/10/24 06:23:39;;;;;;;1.70;1.20;;;12.50;99.90;;;;;;5083196;28;20444;-68
2023/10/24 06:26:13;;;;;;;4.00;1.10;;;12.50;99.90;;;;;;5075439;28;20516;-68
2023/10/24 06:28:39;;;;;;;2.00;1.00;;;12.50;99.90;;;;;;5071054;28;20514;-64
2023/10/24 06:31:07;;;;;;;2.10;1.00;;;12.50;99.90;;;;;;5073653;28;20549;-64
2023/10/24 06:33:34;;;;;;;1.85;1.30;;;12.50;99.90;;;;;;5076525;28;20520;-64
2023/10/24 06:36:01;;;;;;;1.38;1.10;;;12.50;99.90;;;;;;5082347;28;20458;-66
2023/10/24 06:38:28;;;;;;;1.60;1.10;;;12.40;99.90;;;;;;5080032;28;20448;-68
2023/10/24 06:40:55;;;;;;;2.17;1.00;;;12.40;99.90;;;;;;5080369;28;20525;-68
2023/10/24 06:43:22;;;;;;;2.95;1.30;;;12.40;99.90;;;;;;5086650;28;20454;-69
2023/10/24 06:45:49;;;;;;;2.20;1.10;;;12.40;99.90;;;;;;5083937;28;20549;-67
2023/10/24 06:48:17;;;;;;;2.15;1.30;;;12.40;99.90;;;;;;5084151;28;20426;-69
2023/10/24 06:50:44;;;;;;;2.50;1.30;;;12.40;99.90;;;;;;5073804;28;20428;-68
2023/10/24 06:53:13;;;;;;;2.63;1.40;;;12.30;99.90;;;;;;5087718;28;20429;-69
2023/10/24 06:55:40;;;;;;;1.60;1.20;;;12.30;99.90;;;;;;5084289;28;20451;-69
2023/10/24 06:58:07;;;;;;;2.55;1.60;;;12.30;99.90;;;;;;5083806;28;20772;-70
2023/10/24 07:00:34;;;;;;;2.20;1.50;;;12.30;99.90;;;;;;5082381;28;20426;-69
2023/10/24 07:03:00;;;;;;;3.58;1.65;;;12.30;99.90;;;;;;5083566;28;20415;-70
2023/10/24 07:05:28;;;;;;;3.15;1.60;;;12.30;99.90;;;;;;5082004;28;20773;-69
2023/10/24 07:07:55;;;;;;;2.10;1.52;;;12.30;99.90;;;;;;5082918;28;20438;-68
2023/10/24 07:10:22;;;;;;;2.70;1.75;;;12.30;99.90;;;;;;5075213;28;20439;-70
2023/10/24 07:12:49;;;;;;;1.90;1.63;;;12.30;99.90;;;;;;5075168;28;20909;-70
2023/10/24 07:15:15;;;;;;;2.70;1.50;;;12.30;99.90;;;;;;5082268;28;20411;-65
2023/10/24 07:17:42;;;;;;;3.15;1.90;;;12.30;99.90;;;;;;5081472;28;20480;-69
2023/10/24 07:20:10;;;;;;;2.35;1.50;;;12.40;99.90;;;;;;5081664;28;20542;-70
2023/10/24 07:22:38;;;;;;;2.35;1.52;;;12.40;99.90;;;;;;5083478;28;20409;-69
2023/10/24 07:25:06;;;;;;;2.50;1.38;;;12.40;99.90;;;;;;5076811;28;20504;-69
2023/10/24 07:27:32;;;;;;;4.40;1.80;;;12.40;99.90;;;;;;5082834;28;20437;-69
2023/10/24 07:29:59;;;;;;;3.17;1.60;;;12.50;99.90;;;;;;5076436;28;20526;-68
2023/10/24 07:32:26;;;;;;;3.33;1.70;;;12.50;99.90;;;;;;5078585;28;20432;-67
2023/10/24 07:34:56;;;;;;;3.00;1.30;;;12.50;99.90;;;;;;5086042;28;20406;-67
2023/10/24 07:37:22;;;;;;;2.40;1.40;;;12.50;99.90;;;;;;5083152;28;20516;-67
2023/10/24 07:39:50;;;;;;;4.22;1.60;;;12.60;99.90;;;;;;5084773;28;20432;-70
2023/10/24 07:42:17;;;;;;;3.90;1.70;;;12.60;99.90;;;;;;5075054;28;20435;-69
2023/10/24 07:44:44;;;;;;;4.50;1.90;;;12.60;99.90;;;;;;5081713;28;20434;-67
2023/10/24 07:47:10;;;;;;;2.80;2.10;;;12.60;99.90;;;;;;5075239;28;20484;-69
2023/10/24 07:49:37;;;;;;;4.85;1.90;;;12.70;99.90;;;;;;5085218;28;20529;-69
2023/10/24 07:52:05;;;;;;;2.13;1.83;;;12.70;99.90;;;;;;5074495;28;20475;-68
2023/10/24 07:54:32;;;;;;;2.20;1.70;;;12.70;99.90;;;;;;5075757;28;20442;-69
2023/10/24 07:57:00;;;;;;;3.30;1.80;;;12.80;99.90;;;;;;5084664;28;20410;-68
2023/10/24 07:59:26;;;;;;;1.92;1.50;;;12.80;99.90;;;;;;5076807;28;20504;-69
2023/10/24 08:01:54;;;;;;;2.08;1.70;;;12.80;99.90;;;;;;5082763;28;20432;-70
2023/10/24 08:04:20;;;;;;;3.05;1.77;;;12.90;99.90;;;;;;5081938;28;22063;-69
2023/10/24 08:06:47;;;;;;;2.75;1.90;;;12.80;99.90;;;;;;5083361;28;20452;-70
2023/10/24 08:09:14;;;;;;;3.45;1.90;;;12.90;99.90;;;;;;5079791;28;20446;-69
2023/10/24 08:11:41;;;;;;;2.13;1.92;;;12.90;99.90;;;;;;5085785;28;20410;-69
2023/10/24 08:14:09;;;;;;;2.00;1.80;;;12.90;99.90;;;;;;5084801;28;20437;-69
2023/10/24 08:16:36;;;;;;;2.65;1.80;;;13.00;99.90;;;;;;5078560;28;20462;-69
2023/10/24 08:19:03;;;;;;;2.22;1.73;;;13.00;99.90;;;;;;5085980;28;20937;-69
2023/10/24 08:21:30;;;;;;;2.23;1.70;;;13.00;99.90;;;;;;5083692;28;20515;-69
2023/10/24 08:23:57;;;;;;;3.72;2.22;;;13.00;99.90;;;;;;5073403;28;20424;-68
2023/10/24 08:26:23;;;;;;;3.10;1.90;;;13.10;99.90;;;;;;5081166;28;20430;-69
2023/10/24 08:28:50;;;;;;;3.42;1.40;;;13.10;99.90;;;;;;5078119;28;20421;-69
2023/10/24 08:31:18;;;;;;;2.88;1.55;;;13.10;99.90;;;;;;5083919;28;20780;-69
2023/10/24 08:33:45;;;;;;;2.03;1.43;;;13.10;99.90;;;;;;5078739;28;20429;-69
2023/10/24 08:36:12;;;;;;;2.78;1.50;;;13.10;99.90;;;;;;5079978;28;20449;-77
2023/10/24 08:38:38;;;;;;;2.10;1.58;;;13.20;99.90;;;;;;5083892;28;20469;-76
2023/10/24 08:41:05;;;;;;;1.58;1.30;;;13.20;99.90;;;;;;5072789;28;20423;-72
2023/10/24 08:43:32;;;;;;;2.10;1.60;;;13.20;99.90;;;;;;5073240;28;20465;-72
2023/10/24 08:46:00;;;;;;;3.00;1.60;;;13.30;99.90;;;;;;5083511;28;20447;-72
2023/10/24 08:48:31;;;;;;;2.55;1.50;;;13.30;99.90;;;;;;5081222;28;20430;-72
2023/10/24 08:50:58;;;;;;;2.97;1.60;;;13.30;99.90;;;;;;5083542;28;20417;-72
2023/10/24 08:53:26;;;;;;;2.75;1.60;;;13.40;99.90;;;;;;5083107;28;20437;-72
2023/10/24 08:55:54;;;;;;;2.53;1.50;;;13.40;99.90;;;;;;5082769;28;21137;-72
2023/10/24 08:58:21;;;;;;;2.92;1.73;;;13.50;99.90;;;;;;5080950;28;20481;-72
2023/10/24 09:00:48;;;;;;;2.00;1.50;;;13.50;99.90;;;;;;5079139;28;20462;-72
2023/10/24 09:03:17;;;;;;;2.58;1.40;;;13.60;99.90;;;;;;5082809;28;20429;-71
2023/10/24 09:05:46;;;;;;;2.95;1.55;;;13.60;99.90;;;;;;5073525;28;20496;-72
2023/10/24 09:08:13;;;;;;;2.20;1.88;;;13.60;99.90;;;;;;5080193;28;20943;-73
2023/10/24 09:10:40;;;;;;;2.30;1.60;;;13.70;99.90;;;;;;5084908;28;20863;-72
2023/10/24 09:13:07;;;;;;;2.80;1.60;;;13.70;99.90;;;;;;5080487;28;20438;-72
2023/10/24 09:15:36;;;;;;;2.10;1.63;;;13.80;99.90;;;;;;5083657;28;20441;-71
2023/10/24 09:18:04;;;;;;;4.07;1.90;;;13.80;99.90;;;;;;5071877;28;20909;-71
2023/10/24 09:20:31;;;;;;;2.22;1.63;;;13.80;99.90;;;;;;5072634;28;20418;-72
2023/10/24 09:23:05;;;;;;;2.47;1.42;;;13.80;99.90;;;;;;5079831;28;20433;-72
2023/10/24 09:25:32;;;;;;;3.97;1.33;;;13.90;99.90;;;;;;5083940;28;20430;-71
2023/10/24 09:28:15;;;;;;;3.35;1.65;;;14.00;99.80;;;;;;5081149;28;20849;-72
2023/10/24 09:30:41;;;;;;;3.80;1.80;;;14.00;99.70;;;;;;5078271;28;20438;-71
2023/10/24 09:33:08;;;;;;;2.42;1.30;;;14.10;98.80;;;;;;5072320;28;20433;-71
2023/10/24 09:35:36;;;;;;;3.00;1.40;;;14.10;97.70;;;;;;5081256;28;20753;-71
2023/10/24 09:38:06;;;;;;;2.08;1.35;;;14.00;97.90;;;;;;5076177;28;21084;-71
2023/10/24 09:40:36;;;;;;;3.55;1.50;;;14.00;98.50;;;;;;5081616;28;20444;-71
2023/10/24 09:43:09;;;;;;;2.63;1.40;;;14.00;98.40;;;;;;5077543;28;20879;-71
2023/10/24 09:45:38;;;;;;;3.17;1.40;;;14.10;98.70;;;;;;5080841;28;20440;-71
2023/10/24 09:48:05;;;;;;;1.80;1.20;;;14.10;98.40;;;;;;5077126;28;20433;-71
2023/10/24 09:50:33;;;;;;;1.80;1.20;;;14.20;97.40;;;;;;5074488;28;20543;-70
2023/10/24 09:53:00;;;;;;;1.50;1.10;;;14.20;97.80;;;;;;5074354;28;20442;-71
2023/10/24 09:55:28;;;;;;;2.30;1.40;;;14.30;96.70;;;;;;5078117;28;20446;-71
2023/10/24 09:57:58;;;;;;;2.20;1.38;;;14.30;96.90;;;;;;5076854;28;20430;-71
2023/10/24 10:00:25;;;;;;;2.10;1.20;;;14.40;97.20;;;;;;5081753;28;20437;-71
2023/10/24 10:02:57;;;;;;;2.80;1.17;;;14.40;96.60;;;;;;5073844;28;20426;-71
2023/10/24 10:05:25;;;;;;;4.00;1.40;;;14.40;96.60;;;;;;5078472;28;20444;-71
2023/10/24 10:07:54;;;;;;;1.95;1.17;;;14.40;96.70;;;;;;5071572;28;20524;-71
2023/10/24 10:10:24;;;;;;;2.53;1.20;;;14.50;96.40;;;;;;5084820;28;20406;-69
2023/10/24 10:12:54;;;;;;;2.38;1.20;;;14.60;96.60;;;;;;5074030;28;20437;-70
2023/10/24 10:15:36;;;;;;;1.88;1.30;;;14.70;96.50;;;;;;5086210;28;20421;-70
2023/10/24 10:18:14;;;;;;;2.00;1.20;;;14.80;96.90;;;;;;5081618;28;20434;-70
2023/10/24 10:20:50;;;;;;;2.72;1.20;;;14.90;96.70;;;;;;5087010;28;20734;-70
2023/10/24 10:23:41;;;;;;;1.55;1.00;;;14.90;96.60;;;;;;5085754;28;20872;-71
2023/10/24 10:26:15;;;;;;;3.45;1.20;;;15.00;96.20;;;;;;5084797;28;20445;-71
2023/10/24 10:29:07;;;;;;;3.40;1.50;;;15.10;96.60;;;;;;5083844;28;20425;-71
2023/10/24 10:31:52;;;;;;;2.50;1.10;;;15.10;96.50;;;;;;5086526;28;20430;-71
2023/10/24 10:34:19;;;;;;;3.40;1.13;;;15.10;96.60;;;;;;5081477;28;20537;-70
2023/10/24 10:36:55;;;;;;;3.60;1.20;;;15.00;96.40;;;;;;5083532;28;20422;-70
2023/10/24 10:39:22;;;;;;;2.25;1.00;;;15.00;96.50;;;;;;5086526;28;20433;-70
2023/10/24 10:41:49;;;;;;;2.10;1.10;;;14.90;96.50;;;;;;5086083;28;20760;-69
2023/10/24 10:44:39;;;;;;;1.90;1.20;;;14.90;97.50;;;;;;5083601;28;20433;-70
2023/10/24 10:47:07;;;;;;;2.65;1.30;;;14.90;98.00;;;;;;5087124;28;20410;-70
2023/10/24 10:49:56;;;;;;;2.30;1.27;;;14.70;98.90;;;;;;5086002;28;20422;-71
2023/10/24 10:52:38;;;;;;;1.75;1.50;;;14.70;99.70;;;;;;5079814;28;20410;-69
2023/10/24 10:55:15;;;;;;;3.00;1.30;;;14.70;99.90;;;;;;5080352;28;20781;-70
2023/10/24 10:57:59;;;;;;;4.15;1.30;;;14.50;99.90;;;;;;5078687;28;20430;-69
2023/10/24 11:00:35;;;;;;;2.72;1.50;;;14.30;99.90;;;;;;5079147;28;20431;-69
2023/10/24 11:03:13;;;;;;;3.40;1.48;;;14.10;99.90;;;;;;5074677;28;20435;-69
2023/10/24 11:05:50;;;;;;;2.40;1.60;;;13.90;99.90;;;;;;5070718;28;20454;-69
2023/10/24 11:08:22;;;;;;;2.70;1.30;;;13.90;99.90;;;;;;5073998;28;20494;-69
2023/10/24 11:10:56;;;;;;;1.90;1.50;;;13.80;99.90;;;;;;5084012;28;20499;-69
2023/10/24 11:13:37;;;;;;;2.88;1.90;;;13.70;99.90;;;;;;5073562;28;20428;-69
2023/10/24 11:16:06;;;;;;;2.85;1.90;;;13.70;99.90;;;;;;5081682;28;20516;-69
2023/10/24 11:18:34;;;;;;;2.20;1.50;;;13.70;99.90;;;;;;5080920;28;20426;-68
2023/10/24 11:21:04;;;;;;;2.60;1.60;;;13.70;99.90;;;;;;5079973;28;20703;-69
2023/10/24 11:23:31;;;;;;;2.53;1.63;;;13.70;99.90;;;;;;5084530;28;20430;-70
2023/10/24 11:25:59;;;;;;;2.30;1.80;;;13.70;99.90;;;;;;5079040;28;21010;-69
2023/10/24 11:28:27;;;;;;;2.60;1.55;;;13.60;99.90;;;;;;5084979;28;20832;-68
2023/10/24 11:30:54;;;;;;;1.98;1.50;;;13.50;99.90;;;;;;5074273;28;20442;-71
2023/10/24 11:33:22;;;;;;;3.40;1.80;;;13.50;99.90;;;;;;5076758;28;20410;-71
2023/10/24 11:35:49;;;;;;;2.33;1.73;;;13.50;99.90;;;;;;5081054;28;20429;-71
2023/10/24 11:38:16;;;;;;;2.30;1.58;;;13.50;99.90;;;;;;5079780;28;20452;-71
2023/10/24 11:40:46;;;;;;;3.37;1.83;;;13.50;99.90;;;;;;5084055;28;20946;-69
2023/10/24 11:43:14;;;;;;;2.95;1.70;;;13.40;99.90;;;;;;5076315;28;20441;-71
2023/10/24 11:45:41;;;;;;;1.98;1.60;;;13.40;99.90;;;;;;5080817;28;20503;-72
2023/10/24 11:48:08;;;;;;;3.53;1.80;;;13.40;99.90;;;;;;5084329;28;20430;-71
2023/10/24 11:50:45;;;;;;;3.08;2.10;;;13.30;99.90;;;;;;5084502;28;20885;-72
2023/10/24 11:53:13;;;;;;;2.90;2.00;;;13.30;99.90;;;;;;5078022;28;20553;-71
2023/10/24 11:55:39;;;;;;;2.00;1.70;;;13.20;99.90;;;;;;5074382;28;20415;-72
2023/10/24 11:58:08;;;;;;;3.42;2.00;;;13.20;99.90;;;;;;5081142;28;20434;-69
2023/10/24 12:00:37;;;;;;;3.45;2.50;;;13.10;99.90;;;;;;5080295;28;20432;-71
2023/10/24 12:03:05;;;;;;;3.80;2.20;;;13.10;99.90;;;;;;5079912;28;20431;-71
2023/10/24 12:05:32;;;;;;;3.70;2.40;;;13.10;99.90;;;;;;5073246;28;20446;-72
2023/10/24 12:08:02;;;;;;;4.88;2.60;;;13.10;99.90;;;;;;5077204;28;20457;-71
2023/10/24 12:10:29;;;;;;;3.72;2.70;;;13.00;99.90;;;;;;5085297;28;20422;-72
2023/10/24 12:12:57;;;;;;;3.25;2.95;;;13.00;99.90;;;;;;5074016;28;20524;-72
2023/10/24 12:15:25;;;;;;;5.90;3.65;;;12.90;99.90;;;;;;5077642;28;20522;-71
2023/10/24 12:17:51;;;;;;;4.95;3.55;;;12.80;99.90;;;;;;5074243;28;20751;-71
2023/10/24 12:20:20;;;;;;;6.30;3.83;;;12.80;99.90;;;;;;5079975;28;20530;-72
2023/10/24 12:22:47;;;;;;;6.80;4.47;;;12.60;99.90;;;;;;5082246;28;20421;-72
2023/10/24 12:25:17;;;;;;;5.90;4.50;;;12.50;99.90;;;;;;5078977;28;20434;-72
2023/10/24 12:27:45;;;;;;;5.15;4.40;;;12.30;99.90;;;;;;5078255;28;20437;-72
2023/10/24 12:30:12;;;;;;;4.80;2.90;;;12.20;99.90;;;;;;5083397;28;20430;-71
2023/10/24 12:32:39;;;;;;;4.78;2.60;;;11.90;99.90;;;;;;5080971;28;20452;-71
2023/10/24 12:35:06;;;;;;;4.30;2.45;;;11.80;99.90;;;;;;5082165;28;20425;-72
2023/10/24 12:37:34;;;;;;;5.45;2.70;;;11.70;99.90;;;;;;5083941;28;20473;-72
2023/10/24 12:40:01;;;;;;;4.05;2.05;;;11.70;99.90;;;;;;5082612;28;20530;-72
2023/10/24 12:42:29;;;;;;;2.30;2.03;;;11.80;99.90;;;;;;5084475;28;20430;-72
2023/10/24 12:44:55;;;;;;;1.92;1.60;;;11.70;99.90;;;;;;5089801;28;20533;-71
2023/10/24 12:47:22;;;;;;;2.40;2.20;;;11.60;99.90;;;;;;5083848;28;20439;-71
2023/10/24 12:49:49;;;;;;;2.55;2.20;;;11.60;99.90;;;;;;5080772;28;20864;-71
2023/10/24 12:52:15;;;;;;;6.32;2.55;;;11.60;99.90;;;;;;5082721;28;20417;-71